createdAt,value
2018-11-10T00:02:26.160Z,16.87
2018-11-10T00:04:54.613Z,16.73
2018-11-10T00:07:23.125Z,17.20
2018-11-10T00:09:51.418Z,17.53
2018-11-10T00:12:19.754Z,16.53
2018-11-10T00:14:48.170Z,17.23
2018-11-10T00:17:16.518Z,17.43
2018-11-10T00:19:44.893Z,17.57
2018-11-10T00:22:13.314Z,16.60
2018-11-10T00:24:41.758Z,17.77
2018-11-10T00:27:10.038Z,17.00
2018-11-10T00:29:38.442Z,16.63
2018-11-10T00:32:07.454Z,16.97
2018-11-10T00:34:35.907Z,16.73
2018-11-10T00:37:04.517Z,17.17
2018-11-10T00:39:32.977Z,15.27
2018-11-10T00:42:01.267Z,15.40
2018-11-10T00:44:29.689Z,15.90
2018-11-10T00:46:58.001Z,16.03
2018-11-10T00:49:26.397Z,15.80
2018-11-10T00:51:54.773Z,14.73
2018-11-10T00:54:23.909Z,15.50
2018-11-10T00:56:52.217Z,15.43
2018-11-10T00:59:20.866Z,14.83
2018-11-10T01:01:49.373Z,14.63
2018-11-10T01:04:17.757Z,15.23
2018-11-10T01:06:46.241Z,13.80
2018-11-10T01:09:14.606Z,14.40
2018-11-10T01:11:43.086Z,14.20
2018-11-10T01:14:11.502Z,14.33
2018-11-10T01:16:40.048Z,14.93
2018-11-10T01:19:08.365Z,13.97
2018-11-10T01:21:36.722Z,14.67
2018-11-10T01:24:05.243Z,14.23
2018-11-10T01:26:33.698Z,14.10
2018-11-10T01:29:02.164Z,12.53
2018-11-10T01:31:37.170Z,12.87
2018-11-10T01:34:05.675Z,13.50
2018-11-10T01:36:34.057Z,13.80
2018-11-10T01:39:05.081Z,14.03
2018-11-10T01:41:33.385Z,12.13
2018-11-10T01:44:01.925Z,12.30
2018-11-10T01:46:30.866Z,13.10
2018-11-10T01:48:59.649Z,12.80
2018-11-10T01:51:27.957Z,11.03
2018-11-10T01:53:57.177Z,12.77
2018-11-10T01:56:25.506Z,12.83
2018-11-10T01:58:53.890Z,13.57
2018-11-10T02:01:22.931Z,12.57
2018-11-10T02:03:51.252Z,13.23
2018-11-10T02:06:19.526Z,12.40
2018-11-10T02:08:47.862Z,12.43
2018-11-10T02:11:16.394Z,13.13
2018-11-10T02:13:44.686Z,12.60
2018-11-10T02:16:13.007Z,12.90
2018-11-10T02:18:41.346Z,12.17
2018-11-10T02:21:09.839Z,12.53
2018-11-10T02:23:38.170Z,12.60
2018-11-10T02:26:06.541Z,14.47
2018-11-10T02:28:34.937Z,14.23
2018-11-10T02:31:03.938Z,12.43
2018-11-10T02:33:32.374Z,12.23
2018-11-10T02:36:00.641Z,11.80
2018-11-10T02:38:28.975Z,13.00
2018-11-10T02:40:57.719Z,12.20
2018-11-10T02:43:26.099Z,13.93
2018-11-10T02:45:54.375Z,12.30
2018-11-10T02:48:22.820Z,12.73
2018-11-10T02:50:51.206Z,13.10
2018-11-10T02:53:19.502Z,13.30
2018-11-10T02:55:47.950Z,12.73
2018-11-10T02:58:16.268Z,13.83
2018-11-10T03:00:44.568Z,12.87
2018-11-10T03:03:12.947Z,12.90
2018-11-10T03:05:41.381Z,11.07
2018-11-10T03:08:09.673Z,12.87
2018-11-10T03:10:38.507Z,12.77
2018-11-10T03:13:06.834Z,12.13
2018-11-10T03:15:35.094Z,12.57
2018-11-10T03:18:03.440Z,12.40
2018-11-10T03:20:31.738Z,11.60
2018-11-10T03:23:00.079Z,12.27
2018-11-10T03:25:28.396Z,12.30
2018-11-10T03:27:56.970Z,11.23
2018-11-10T03:30:25.287Z,10.53
2018-11-10T03:32:53.686Z,11.80
2018-11-10T03:35:21.971Z,11.07
2018-11-10T03:37:50.422Z,11.97
2018-11-10T03:40:18.826Z,11.60
2018-11-10T03:42:47.112Z,11.10
2018-11-10T03:45:15.510Z,10.83
2018-11-10T03:47:43.845Z,10.13
2018-11-10T03:50:12.598Z,11.23
2018-11-10T03:52:41.091Z,11.83
2018-11-10T03:55:10.510Z,9.60
2018-11-10T03:57:38.824Z,10.60
2018-11-10T04:00:10.680Z,10.40
2018-11-10T04:02:39.594Z,10.40
2018-11-10T04:05:08.706Z,10.07
2018-11-10T04:07:37.114Z,10.03
2018-11-10T04:10:05.937Z,10.53
2018-11-10T04:12:34.571Z,10.10
2018-11-10T04:15:03.250Z,9.50
2018-11-10T04:17:32.316Z,9.43
2018-11-10T04:20:00.605Z,9.70
2018-11-10T04:22:33.515Z,10.23
2018-11-10T04:25:02.747Z,9.33
2018-11-10T04:27:31.490Z,10.50
2018-11-10T04:30:00.046Z,10.13
2018-11-10T04:32:28.458Z,9.90
2018-11-10T04:34:56.718Z,10.30
2018-11-10T04:37:25.779Z,10.13
2018-11-10T04:39:54.622Z,9.97
2018-11-10T04:42:22.890Z,9.40
2018-11-10T04:44:51.354Z,9.73
2018-11-10T04:47:19.654Z,10.43
2018-11-10T04:49:48.639Z,10.40
2018-11-10T04:52:17.070Z,9.87
2018-11-10T04:54:45.422Z,10.00
2018-11-10T04:57:13.793Z,9.53
2018-11-10T04:59:42.266Z,9.70
2018-11-10T05:02:10.653Z,9.63
2018-11-10T05:04:39.031Z,8.83
2018-11-10T05:07:07.422Z,9.30
2018-11-10T05:09:35.773Z,9.07
2018-11-10T05:12:05.059Z,9.03
2018-11-10T05:14:33.502Z,8.23
2018-11-10T05:17:01.846Z,8.10
2018-11-10T05:19:30.809Z,8.90
2018-11-10T05:21:59.970Z,7.73
2018-11-10T05:24:28.242Z,8.77
2018-11-10T05:26:56.582Z,8.27
2018-11-10T05:29:24.902Z,8.07
2018-11-10T05:31:53.314Z,8.77
2018-11-10T05:34:21.702Z,9.20
2018-11-10T05:36:50.298Z,8.70
2018-11-10T05:39:18.678Z,9.73
2018-11-10T05:41:46.953Z,8.07
2018-11-10T05:44:15.244Z,8.33
2018-11-10T05:46:44.018Z,9.13
2018-11-10T05:49:12.414Z,8.00
2018-11-10T05:51:41.341Z,8.33
2018-11-10T05:54:09.673Z,8.83
2018-11-10T05:56:38.046Z,9.20
2018-11-10T05:59:06.658Z,9.73
2018-11-10T06:01:35.010Z,13.93
2018-11-10T06:04:03.462Z,13.80
2018-11-10T06:06:31.866Z,37.47
2018-11-10T06:09:00.273Z,14.10
2018-11-10T06:11:28.624Z,10.63
2018-11-10T06:13:56.918Z,10.33
2018-11-10T06:16:25.894Z,14.07
2018-11-10T06:18:54.449Z,11.23
2018-11-10T06:21:22.778Z,9.93
2018-11-10T06:23:51.046Z,8.93
2018-11-10T06:26:19.503Z,8.57
2018-11-10T06:28:47.836Z,9.40
2018-11-10T06:31:16.171Z,9.23
2018-11-10T06:33:44.642Z,10.27
2018-11-10T06:36:13.982Z,10.50
2018-11-10T06:38:42.312Z,15.33
2018-11-10T06:41:10.745Z,12.57
2018-11-10T06:43:39.118Z,12.23
2018-11-10T06:46:07.416Z,11.27
2018-11-10T06:48:35.743Z,9.90
2018-11-10T06:51:04.163Z,10.57
2018-11-10T06:53:32.426Z,9.40
2018-11-10T06:56:00.766Z,10.47
2018-11-10T06:58:29.179Z,39.57
2018-11-10T07:00:57.547Z,61.77
2018-11-10T07:03:26.482Z,28.87
2018-11-10T07:05:54.846Z,25.83
2018-11-10T07:08:23.106Z,12.20
2018-11-10T07:10:51.514Z,12.50
2018-11-10T07:13:19.848Z,11.73
2018-11-10T07:15:48.202Z,12.17
2018-11-10T07:18:17.032Z,11.60
2018-11-10T07:20:45.423Z,12.47
2018-11-10T07:23:13.763Z,12.27
2018-11-10T07:25:42.550Z,12.23
2018-11-10T07:28:11.012Z,12.27
2018-11-10T07:30:40.337Z,12.73
2018-11-10T07:33:08.712Z,12.10
2018-11-10T07:35:37.019Z,13.40
2018-11-10T07:38:05.363Z,12.90
2018-11-10T07:40:34.738Z,11.03
2018-11-10T07:43:03.081Z,10.03
2018-11-10T07:45:31.494Z,9.57
2018-11-10T07:47:59.798Z,9.37
2018-11-10T07:50:28.184Z,9.87
2018-11-10T07:52:57.146Z,9.30
2018-11-10T07:55:25.544Z,9.00
2018-11-10T07:57:53.965Z,10.27
2018-11-10T08:00:22.411Z,10.30
2018-11-10T08:02:50.698Z,10.10
2018-11-10T08:05:19.002Z,10.13
2018-11-10T08:07:47.438Z,10.30
2018-11-10T08:10:16.311Z,9.87
2018-11-10T08:12:44.804Z,10.20
2018-11-10T08:15:14.342Z,9.83
2018-11-10T08:17:42.684Z,11.30
2018-11-10T08:20:11.754Z,10.43
2018-11-10T08:22:40.043Z,10.47
2018-11-10T08:25:10.611Z,9.37
2018-11-10T08:27:39.158Z,8.27
2018-11-10T08:30:09.344Z,9.30
2018-11-10T08:32:37.747Z,9.17
2018-11-10T08:35:07.333Z,8.67
2018-11-10T08:37:35.638Z,8.63
2018-11-10T08:40:03.915Z,7.40
2018-11-10T08:42:32.480Z,8.57
2018-11-10T08:45:00.989Z,8.80
2018-11-10T08:47:29.388Z,9.50
2018-11-10T08:49:57.778Z,12.33
2018-11-10T08:52:26.087Z,8.73
2018-11-10T08:54:54.371Z,8.73
2018-11-10T08:57:22.696Z,15.27
2018-11-10T08:59:50.949Z,8.80
2018-11-10T09:02:19.232Z,11.70
2018-11-10T09:04:48.062Z,8.90
2018-11-10T09:07:16.403Z,11.20
2018-11-10T09:09:44.808Z,7.80
2018-11-10T09:12:13.171Z,22.63
2018-11-10T09:14:41.534Z,14.53
2018-11-10T09:17:09.839Z,12.53
2018-11-10T09:19:38.219Z,10.27
2018-11-10T09:22:07.426Z,11.03
2018-11-10T09:24:36.106Z,11.40
2018-11-10T09:27:04.447Z,10.27
2018-11-10T09:29:33.454Z,10.23
2018-11-10T09:32:01.755Z,12.60
2018-11-10T09:34:30.066Z,11.37
2018-11-10T09:36:58.473Z,11.00
2018-11-10T09:39:26.863Z,9.50
2018-11-10T09:41:55.410Z,8.60
2018-11-10T09:44:23.718Z,8.73
2018-11-10T09:46:52.102Z,7.43
2018-11-10T09:49:20.517Z,8.03
2018-11-10T09:51:48.853Z,8.17
2018-11-10T09:54:17.226Z,7.47
2018-11-10T09:56:45.651Z,8.17
2018-11-10T09:59:14.158Z,7.67
2018-11-10T10:01:42.614Z,12.17
2018-11-10T10:04:11.534Z,7.73
2018-11-10T10:06:40.352Z,8.17
2018-11-10T10:09:09.981Z,7.67
2018-11-10T10:11:38.798Z,7.93
2018-11-10T10:14:08.112Z,7.23
2018-11-10T10:16:36.435Z,7.73
2018-11-10T10:19:05.606Z,9.57
2018-11-10T10:21:34.080Z,15.60
2018-11-10T10:24:02.393Z,17.00
2018-11-10T10:26:30.876Z,13.13
2018-11-10T10:29:00.120Z,10.57
2018-11-10T10:31:28.361Z,8.03
2018-11-10T10:33:56.766Z,8.47
2018-11-10T10:36:25.198Z,7.30
2018-11-10T10:38:53.881Z,6.67
2018-11-10T10:41:22.439Z,6.93
2018-11-10T10:43:50.758Z,6.73
2018-11-10T10:46:19.441Z,6.53
2018-11-10T10:48:48.086Z,6.13
2018-11-10T10:51:16.904Z,6.60
2018-11-10T10:53:45.561Z,6.20
2018-11-10T10:56:14.190Z,9.40
2018-11-10T10:58:42.442Z,6.10
2018-11-10T11:01:16.260Z,6.43
2018-11-10T11:03:49.830Z,5.90
2018-11-10T11:06:18.287Z,6.30
2018-11-10T11:08:46.933Z,7.87
2018-11-10T11:11:15.189Z,13.67
2018-11-10T11:13:43.709Z,11.60
2018-11-10T11:16:11.998Z,6.70
2018-11-10T11:18:40.339Z,7.90
2018-11-10T11:21:08.914Z,9.63
2018-11-10T11:23:37.505Z,6.07
2018-11-10T11:26:06.323Z,6.83
2018-11-10T11:28:34.675Z,6.93
2018-11-10T11:31:03.077Z,5.70
2018-11-10T11:33:31.361Z,11.03
2018-11-10T11:35:59.822Z,8.90
2018-11-10T11:38:28.265Z,5.60
2018-11-10T11:40:56.718Z,5.27
2018-11-10T11:43:25.561Z,4.83
2018-11-10T11:45:53.938Z,4.77
2018-11-10T11:48:22.293Z,7.83
2018-11-10T11:50:50.910Z,8.23
2018-11-10T11:53:19.197Z,6.50
2018-11-10T11:55:47.550Z,19.17
2018-11-10T11:58:15.952Z,10.03
2018-11-10T12:00:44.406Z,8.47
2018-11-10T12:03:12.784Z,10.43
2018-11-10T12:05:41.410Z,6.53
2018-11-10T12:08:09.722Z,5.47
2018-11-10T12:10:38.105Z,5.43
2018-11-10T12:13:06.534Z,7.03
2018-11-10T12:15:34.832Z,5.43
2018-11-10T12:18:03.214Z,6.33
2018-11-10T12:20:31.704Z,10.50
2018-11-10T12:23:00.517Z,6.70
2018-11-10T12:25:34.656Z,8.33
2018-11-10T12:28:02.957Z,8.10
2018-11-10T12:30:31.247Z,8.53
2018-11-10T12:32:59.582Z,6.97
2018-11-10T12:35:27.866Z,6.10
2018-11-10T12:37:56.242Z,7.03
2018-11-10T12:40:25.442Z,9.30
2018-11-10T12:42:53.929Z,7.17
2018-11-10T12:45:22.203Z,6.60
2018-11-10T12:47:50.521Z,7.40
2018-11-10T12:50:18.858Z,8.60
2018-11-10T12:52:47.158Z,9.33
2018-11-10T12:55:16.263Z,7.87
2018-11-10T12:57:45.678Z,8.37
2018-11-10T13:00:15.366Z,7.03
2018-11-10T13:02:44.174Z,9.87
2018-11-10T13:05:12.943Z,9.87
2018-11-10T13:07:42.846Z,10.43
2018-11-10T13:10:11.762Z,9.50
2018-11-10T13:12:40.688Z,9.37
2018-11-10T13:15:09.302Z,8.33
2018-11-10T13:17:38.997Z,9.23
2018-11-10T13:20:09.529Z,7.70
2018-11-10T13:22:38.018Z,11.00
2018-11-10T13:25:07.055Z,6.40
2018-11-10T13:27:35.362Z,7.10
2018-11-10T13:30:04.318Z,7.50
2018-11-10T13:32:32.691Z,6.50
2018-11-10T13:35:00.978Z,6.90
2018-11-10T13:37:29.307Z,7.13
2018-11-10T13:39:57.700Z,6.90
2018-11-10T13:42:26.291Z,7.37
2018-11-10T13:44:54.621Z,6.73
2018-11-10T13:47:23.047Z,6.80
2018-11-10T13:49:51.334Z,7.07
2018-11-10T13:52:19.906Z,6.67
2018-11-10T13:54:48.059Z,6.77
2018-11-10T13:57:16.335Z,6.97
2018-11-10T13:59:44.698Z,6.50
2018-11-10T14:02:13.110Z,6.87
2018-11-10T14:04:41.537Z,6.63
2018-11-10T14:07:09.797Z,7.03
2018-11-10T14:09:38.142Z,6.53
2018-11-10T14:12:06.510Z,6.70
2018-11-10T14:14:34.838Z,7.00
2018-11-10T14:17:03.462Z,11.60
2018-11-10T14:19:32.230Z,6.70
2018-11-10T14:22:00.523Z,11.37
2018-11-10T14:24:28.853Z,6.37
2018-11-10T14:26:57.287Z,6.37
2018-11-10T14:29:25.655Z,7.27
2018-11-10T14:31:54.354Z,6.40
2018-11-10T14:34:22.728Z,6.40
2018-11-10T14:36:51.084Z,6.23
2018-11-10T14:39:19.522Z,5.80
2018-11-10T14:41:47.944Z,5.97
2018-11-10T14:44:16.412Z,6.03
2018-11-10T14:46:45.382Z,5.90
2018-11-10T14:49:14.194Z,6.80
2018-11-10T14:51:42.478Z,6.00
2018-11-10T14:54:10.803Z,5.90
2018-11-10T14:56:39.151Z,6.10
2018-11-10T14:59:07.467Z,6.40
2018-11-10T15:01:35.839Z,6.50
2018-11-10T15:04:04.322Z,72.13
2018-11-10T15:06:32.898Z,24.03
2018-11-10T15:09:01.379Z,14.13
2018-11-10T15:11:29.737Z,10.70
2018-11-10T15:13:57.962Z,9.93
2018-11-10T15:16:26.307Z,8.00
2018-11-10T15:18:54.668Z,7.33
2018-11-10T15:21:23.040Z,7.47
2018-11-10T15:23:51.342Z,8.73
2018-11-10T15:26:19.805Z,7.53
2018-11-10T15:28:48.646Z,7.50
2018-11-10T15:31:17.006Z,7.10
2018-11-10T15:33:45.354Z,7.17
2018-11-10T15:36:14.326Z,7.37
2018-11-10T15:38:42.814Z,7.97
2018-11-10T15:41:11.236Z,7.33
2018-11-10T15:43:40.314Z,9.73
2018-11-10T15:46:09.169Z,11.60
2018-11-10T15:48:37.595Z,8.13
2018-11-10T15:51:06.127Z,8.00
2018-11-10T15:53:34.441Z,6.40
2018-11-10T15:56:02.735Z,6.40
2018-11-10T15:58:31.051Z,6.13
2018-11-10T16:00:59.503Z,6.70
2018-11-10T16:03:27.827Z,6.20
2018-11-10T16:05:56.111Z,6.57
2018-11-10T16:08:24.518Z,6.20
2018-11-10T16:10:52.861Z,6.17
2018-11-10T16:13:21.245Z,6.33
2018-11-10T16:15:49.662Z,6.67
2018-11-10T16:18:18.571Z,7.63
2018-11-10T16:20:46.949Z,7.13
2018-11-10T16:23:15.474Z,7.33
2018-11-10T16:25:43.854Z,10.80
2018-11-10T16:28:12.164Z,8.97
2018-11-10T16:30:40.565Z,8.57
2018-11-10T16:33:08.879Z,8.63
2018-11-10T16:35:37.163Z,9.53
2018-11-10T16:38:05.896Z,11.17
2018-11-10T16:40:34.224Z,12.63
2018-11-10T16:43:02.914Z,9.53
2018-11-10T16:45:31.317Z,9.80
2018-11-10T16:47:59.757Z,8.43
2018-11-10T16:50:28.165Z,9.27
2018-11-10T16:52:56.524Z,8.60
2018-11-10T16:55:25.003Z,8.53
2018-11-10T16:57:53.484Z,11.27
2018-11-10T17:00:21.884Z,10.53
2018-11-10T17:02:50.574Z,7.90
2018-11-10T17:05:18.868Z,8.77
2018-11-10T17:07:47.229Z,9.20
2018-11-10T17:10:16.829Z,8.03
2018-11-10T17:12:45.694Z,8.43
2018-11-10T17:15:14.241Z,7.50
2018-11-10T17:17:42.564Z,7.57
2018-11-10T17:20:13.093Z,7.97
2018-11-10T17:22:41.764Z,8.40
2018-11-10T17:25:10.699Z,8.73
2018-11-10T17:27:39.423Z,7.67
2018-11-10T17:30:10.944Z,15.07
2018-11-10T17:32:39.343Z,12.43
2018-11-10T17:35:08.497Z,17.60
2018-11-10T17:37:37.625Z,8.37
2018-11-10T17:40:07.229Z,8.97
2018-11-10T17:42:36.175Z,7.80
2018-11-10T17:45:04.708Z,8.33
2018-11-10T17:47:33.079Z,6.93
2018-11-10T17:50:01.507Z,7.53
2018-11-10T17:52:30.747Z,8.57
2018-11-10T17:54:59.731Z,8.40
2018-11-10T17:57:34.583Z,7.37
2018-11-10T18:00:03.415Z,7.77
2018-11-10T18:02:31.794Z,7.70
2018-11-10T18:05:00.221Z,7.10
2018-11-10T18:07:28.726Z,6.03
2018-11-10T18:09:57.053Z,8.30
2018-11-10T18:12:25.377Z,8.17
2018-11-10T18:14:53.965Z,7.77
2018-11-10T18:17:22.286Z,8.10
2018-11-10T18:19:50.887Z,8.20
2018-11-10T18:22:19.241Z,7.60
2018-11-10T18:24:47.539Z,11.40
2018-11-10T18:27:15.865Z,7.87
2018-11-10T18:29:44.443Z,7.23
2018-11-10T18:32:12.766Z,9.20
2018-11-10T18:34:41.445Z,19.80
2018-11-10T18:37:16.249Z,17.13
2018-11-10T18:39:44.719Z,13.00
2018-11-10T18:42:13.002Z,10.83
2018-11-10T18:44:41.486Z,13.23
2018-11-10T18:47:10.141Z,10.43
2018-11-10T18:49:38.469Z,10.67
2018-11-10T18:52:06.940Z,10.67
2018-11-10T18:54:35.286Z,11.80
2018-11-10T18:57:03.780Z,11.23
2018-11-10T18:59:32.103Z,11.37
2018-11-10T19:02:00.513Z,11.63
2018-11-10T19:04:28.864Z,11.97
2018-11-10T19:06:57.182Z,10.93
2018-11-10T19:09:25.486Z,11.27
2018-11-10T19:11:53.878Z,11.10
2018-11-10T19:14:22.270Z,10.53
2018-11-10T19:16:50.989Z,13.70
2018-11-10T19:19:19.318Z,13.93
2018-11-10T19:21:47.878Z,12.77
2018-11-10T19:24:16.230Z,11.50
2018-11-10T19:26:44.534Z,10.93
2018-11-10T19:29:12.954Z,12.13
2018-11-10T19:31:41.347Z,12.40
2018-11-10T19:34:09.707Z,18.00
2018-11-10T19:36:38.043Z,17.50
2018-11-10T19:39:08.650Z,20.23
2018-11-10T19:41:37.563Z,21.30
2018-11-10T19:44:06.505Z,21.57
2018-11-10T19:46:34.886Z,21.23
2018-11-10T19:49:03.241Z,18.30
2018-11-10T19:51:31.832Z,18.00
2018-11-10T19:53:59.938Z,17.57
2018-11-10T19:56:28.265Z,19.67
2018-11-10T19:58:56.637Z,20.73
2018-11-10T20:01:25.086Z,20.00
2018-11-10T20:03:53.377Z,21.00
2018-11-10T20:06:21.684Z,20.93
2018-11-10T20:08:50.094Z,20.70
2018-11-10T20:11:18.442Z,20.87
2018-11-10T20:13:46.859Z,21.57
2018-11-10T20:16:15.738Z,20.13
2018-11-10T20:18:44.043Z,19.03
2018-11-10T20:21:12.347Z,21.27
2018-11-10T20:23:40.684Z,20.47
2018-11-10T20:26:08.959Z,21.47
2018-11-10T20:28:37.295Z,19.30
2018-11-10T20:31:05.708Z,22.70
2018-11-10T20:33:34.054Z,20.63
2018-11-10T20:36:02.526Z,20.57
2018-11-10T20:38:31.048Z,18.10
2018-11-10T20:40:59.385Z,19.93
2018-11-10T20:43:27.881Z,19.73
2018-11-10T20:45:56.211Z,18.57
2018-11-10T20:48:24.501Z,19.27
2018-11-10T20:50:52.925Z,17.40
2018-11-10T20:53:21.989Z,16.77
2018-11-10T20:55:50.473Z,18.80
2018-11-10T20:58:18.925Z,17.10
2018-11-10T21:00:47.361Z,17.70
2018-11-10T21:03:15.685Z,18.17
2018-11-10T21:05:44.027Z,17.93
2018-11-10T21:08:13.227Z,18.30
2018-11-10T21:10:41.586Z,17.00
2018-11-10T21:13:09.957Z,17.70
2018-11-10T21:15:38.547Z,17.30
2018-11-10T21:18:06.999Z,17.97
2018-11-10T21:20:35.285Z,18.23
2018-11-10T21:23:03.727Z,15.73
2018-11-10T21:25:32.053Z,15.77
2018-11-10T21:28:00.325Z,17.03
2018-11-10T21:30:28.917Z,18.63
2018-11-10T21:32:57.306Z,17.83
2018-11-10T21:35:25.781Z,18.83
2018-11-10T21:37:54.082Z,17.77
2018-11-10T21:40:23.277Z,16.40
2018-11-10T21:42:51.630Z,17.57
2018-11-10T21:45:20.040Z,16.60
2018-11-10T21:47:55.026Z,15.13
2018-11-10T21:50:23.458Z,16.20
2018-11-10T21:52:51.785Z,17.03
2018-11-10T21:55:20.653Z,15.63
2018-11-10T21:57:49.518Z,16.20
2018-11-10T22:00:19.821Z,15.17
2018-11-10T22:02:48.446Z,16.37
2018-11-10T22:05:17.162Z,15.17
2018-11-10T22:07:46.067Z,14.63
2018-11-10T22:10:15.740Z,14.17
2018-11-10T22:12:44.470Z,15.00
2018-11-10T22:15:16.281Z,14.13
2018-11-10T22:17:45.245Z,14.20
2018-11-10T22:20:14.926Z,14.87
2018-11-10T22:22:43.411Z,14.63
2018-11-10T22:25:12.625Z,13.43
2018-11-10T22:27:42.421Z,14.93
2018-11-10T22:30:18.693Z,16.23
2018-11-10T22:32:47.763Z,14.53
2018-11-10T22:35:16.929Z,15.27
2018-11-10T22:37:45.201Z,14.80
2018-11-10T22:40:14.785Z,15.63
2018-11-10T22:42:43.599Z,14.30
2018-11-10T22:45:13.509Z,15.20
2018-11-10T22:47:42.302Z,14.83
2018-11-10T22:50:13.509Z,14.77
2018-11-10T22:52:42.080Z,13.30
2018-11-10T22:55:11.625Z,14.20
2018-11-10T22:57:40.183Z,12.33
2018-11-10T23:00:14.265Z,13.83
2018-11-10T23:02:43.586Z,13.00
2018-11-10T23:05:12.056Z,12.13
2018-11-10T23:07:40.618Z,13.00
2018-11-10T23:10:09.097Z,13.53
2018-11-10T23:12:38.170Z,12.53
2018-11-10T23:15:06.630Z,12.23
2018-11-10T23:17:34.946Z,12.93
2018-11-10T23:20:03.366Z,14.17
2018-11-10T23:22:31.742Z,16.73
2018-11-10T23:25:00.060Z,15.10
2018-11-10T23:27:28.350Z,14.50
2018-11-10T23:29:56.771Z,13.57
2018-11-10T23:32:25.122Z,14.37
2018-11-10T23:34:53.499Z,15.40
2018-11-10T23:37:21.782Z,14.60
2018-11-10T23:39:50.175Z,14.87
2018-11-10T23:42:18.467Z,15.20
2018-11-10T23:44:46.768Z,14.20
2018-11-10T23:47:15.079Z,14.33
2018-11-10T23:49:43.358Z,14.00
2018-11-10T23:52:11.699Z,13.70
2018-11-10T23:54:40.111Z,14.53
2018-11-10T23:57:08.511Z,15.70
2018-11-10T23:59:36.893Z,15.90
